Time;durP1;ratioP1;P1;durP2;ratioP2;P2;SDS_P1;SDS_P2;PMS_P1;PMS_P2;Temp;Humidity;BMP_temperature;BMP_pressure;BME280_temperature;BME280_humidity;BME280_pressure;Samples;Min_cycle;Max_cycle;Signal;HPM_P1;HPM_P2
2022/12/15 00:40:15;;;;;;;;;;;-1.20;76.10;;;;;;5094801;28;20049;-33
2022/12/15 00:42:40;;;;;;;;;;;-1.30;76.10;;;;;;5094652;28;20002;-35
2022/12/15 00:45:06;;;;;;;;;;;-1.30;76.10;;;;;;5094349;28;20018;-34
2022/12/15 00:47:32;;;;;;;;;;;-1.30;76.10;;;;;;5094255;28;19908;-35
2022/12/15 01:20:16;;;;;;;;;;;-1.30;76.00;;;;;;5094055;28;19931;-35
2022/12/15 01:22:52;;;;;;;;;;;-1.30;76.00;;;;;;5094043;28;19949;-35
2022/12/15 01:25:18;;;;;;;;;;;-1.30;76.00;;;;;;5093817;28;19918;-35
2022/12/15 01:27:44;;;;;;;;;;;-1.30;75.90;;;;;;5093596;28;19908;-33
2022/12/15 01:30:11;;;;;;;;;;;-1.30;76.00;;;;;;5093792;28;19911;-35
2022/12/15 01:32:37;;;;;;;;;;;-1.30;76.00;;;;;;5093533;28;20284;-35
2022/12/15 01:35:04;;;;;;;;;;;-1.30;76.00;;;;;;5093514;28;20435;-35
2022/12/15 01:37:29;;;;;;;;;;;-1.30;76.00;;;;;;5093349;28;19908;-34
2022/12/15 01:42:39;;;;;;;;;;;-1.30;76.00;;;;;;5093627;28;19915;-35
2022/12/15 01:45:22;;;;;;;;;;;-1.30;76.00;;;;;;5093303;28;19915;-35
2022/12/15 01:47:52;;;;;;;;;;;-1.30;76.00;;;;;;5093213;28;20307;-35
2022/12/15 01:50:18;;;;;;;;;;;-1.40;76.00;;;;;;5093304;28;20364;-35
2022/12/15 01:52:44;;;;;;;;;;;-1.40;76.00;;;;;;5093381;28;19961;-36
2022/12/15 01:55:10;;;;;;;;;;;-1.40;76.10;;;;;;5093328;28;19908;-33
2022/12/15 01:57:35;;;;;;;;;;;-1.40;76.10;;;;;;5093257;28;19912;-35
2022/12/15 02:00:03;;;;;;;;;;;-1.40;76.10;;;;;;5092747;28;19915;-35
2022/12/15 02:02:29;;;;;;;;;;;-1.40;76.20;;;;;;5092727;28;19908;-34
2022/12/15 02:04:56;;;;;;;;;;;-1.40;76.20;;;;;;5093162;28;19966;-33
2022/12/15 02:07:22;;;;;;;;;;;-1.40;76.20;;;;;;5093930;28;19908;-35
2022/12/15 02:09:48;;;;;;;;;;;-1.40;76.20;;;;;;5093537;28;20458;-33
2022/12/15 02:12:22;;;;;;;;;;;-1.40;76.10;;;;;;5093375;28;19990;-35
2022/12/15 02:14:56;;;;;;;;;;;-1.40;76.10;;;;;;5093449;28;19908;-35
2022/12/15 02:17:44;;;;;;;;;;;-1.40;76.10;;;;;;5093534;28;19962;-35
2022/12/15 02:20:12;;;;;;;;;;;-1.40;76.10;;;;;;5092006;28;19955;-35
2022/12/15 02:22:49;;;;;;;;;;;-1.40;76.70;;;;;;5093291;28;19997;-35
2022/12/15 02:25:31;;;;;;;;;;;-1.40;76.10;;;;;;5093506;28;20259;-35
2022/12/15 02:28:17;;;;;;;;;;;-1.40;76.10;;;;;;5093318;28;20390;-35
2022/12/15 02:30:46;;;;;;;;;;;-1.40;76.10;;;;;;5085697;28;20275;-35
2022/12/15 02:33:25;;;;;;;;;;;-1.40;76.20;;;;;;5093163;28;19908;-35
2022/12/15 02:35:51;;;;;;;;;;;-1.50;76.00;;;;;;5093189;28;19908;-35
2022/12/15 02:38:27;;;;;;;;;;;-1.50;76.10;;;;;;5093131;28;20382;-34
2022/12/15 02:41:02;;;;;;;;;;;-1.50;76.00;;;;;;5093009;28;19958;-35
2022/12/15 02:43:28;;;;;;;;;;;-1.50;76.10;;;;;;5093216;28;19908;-35
2022/12/15 02:46:12;;;;;;;;;;;-1.50;76.10;;;;;;5092832;28;19919;-35
2022/12/15 02:49:11;;;;;;;;;;;-1.50;76.10;;;;;;5093336;28;20386;-35
2022/12/15 02:51:39;;;;;;;;;;;-1.50;76.10;;;;;;5069599;28;19974;-35
2022/12/15 02:54:04;;;;;;;;;;;-1.50;76.10;;;;;;5092822;28;19912;-34
2022/12/15 02:56:39;;;;;;;;;;;-1.50;76.00;;;;;;5092809;28;20277;-34
2022/12/15 02:59:28;;;;;;;;;;;-1.40;76.10;;;;;;5092884;28;19949;-35
2022/12/15 03:01:53;;;;;;;;;;;-1.50;76.10;;;;;;5093107;28;20318;-35
2022/12/15 03:04:19;;;;;;;;;;;-1.50;76.00;;;;;;5092557;28;20002;-33
2022/12/15 03:06:52;;;;;;;;;;;-1.50;76.00;;;;;;5092683;28;19955;-35
2022/12/15 03:09:17;;;;;;;;;;;-1.50;76.00;;;;;;5091438;28;19999;-35
2022/12/15 03:11:43;;;;;;;;;;;-1.50;76.00;;;;;;5092796;28;19908;-35
2022/12/15 03:14:08;;;;;;;;;;;-1.60;76.00;;;;;;5095995;28;20448;-35
2022/12/15 03:16:34;;;;;;;;;;;-1.60;76.00;;;;;;5097176;28;19912;-35
2022/12/15 03:18:59;;;;;;;;;;;-1.60;76.10;;;;;;5096747;28;19908;-34
2022/12/15 03:21:25;;;;;;;;;;;-1.70;75.90;;;;;;5095487;28;19930;-35
2022/12/15 03:23:50;;;;;;;;;;;-1.70;76.00;;;;;;5096714;28;19908;-34
2022/12/15 03:26:15;;;;;;;;;;;-1.70;76.00;;;;;;5096539;28;19961;-35
2022/12/15 03:28:41;;;;;;;;;;;-1.70;76.70;;;;;;5096638;28;20348;-34
2022/12/15 03:31:07;;;;;;;;;;;-1.80;76.00;;;;;;5096776;28;20271;-35
2022/12/15 03:33:32;;;;;;;;;;;-1.70;76.10;;;;;;5096807;28;19908;-35
2022/12/15 03:35:58;;;;;;;;;;;-1.80;76.10;;;;;;5096654;28;20383;-34
2022/12/15 03:38:24;;;;;;;;;;;-1.80;76.10;;;;;;5096447;28;20059;-35
2022/12/15 03:40:49;;;;;;;;;;;-1.80;76.10;;;;;;5096600;28;19915;-34
2022/12/15 03:43:15;;;;;;;;;;;-1.80;76.10;;;;;;5094892;28;20095;-35
2022/12/15 03:45:40;;;;;;;;;;;-1.80;76.00;;;;;;5096132;28;19948;-33
2022/12/15 03:48:06;;;;;;;;;;;-1.80;76.00;;;;;;5096331;28;20008;-35
2022/12/15 03:50:31;;;;;;;;;;;-1.90;76.00;;;;;;5096370;28;19961;-35
2022/12/15 03:53:00;;;;;;;;;;;-1.90;76.00;;;;;;5096187;28;19966;-35
2022/12/15 03:55:27;;;;;;;;;;;-1.90;76.00;;;;;;5096134;28;19919;-35
2022/12/15 03:57:53;;;;;;;;;;;-1.90;76.10;;;;;;5096254;28;19909;-35
2022/12/15 04:00:19;;;;;;;;;;;-1.90;76.10;;;;;;5096002;28;19953;-34
2022/12/15 04:02:45;;;;;;;;;;;-2.00;76.00;;;;;;5096129;28;20318;-34
2022/12/15 04:05:16;;;;;;;;;;;-1.90;76.10;;;;;;5095706;28;20006;-33
2022/12/15 04:07:42;;;;;;;;;;;-1.90;76.10;;;;;;5096126;28;19915;-34
2022/12/15 04:10:07;;;;;;;;;;;-1.90;76.10;;;;;;5095905;28;20513;-34
2022/12/15 04:12:33;;;;;;;;;;;-1.90;76.10;;;;;;5095646;28;19915;-34
2022/12/15 04:14:58;;;;;;;;;;;-1.90;76.00;;;;;;5095588;28;19908;-34
2022/12/15 04:17:24;;;;;;;;;;;-1.80;76.10;;;;;;5095711;28;20058;-36
2022/12/15 04:20:08;;;;;;;;;;;-1.80;76.10;;;;;;5095465;28;19908;-34
2022/12/15 04:22:34;;;;;;;;;;;-1.80;76.10;;;;;;5095638;28;19912;-34
2022/12/15 05:33:26;;;;;;;;;;;-1.90;76.50;;;;;;5093606;28;19915;-39
2022/12/15 05:35:54;;;;;;;;;;;-1.90;76.50;;;;;;5092749;28;20306;-37
2022/12/15 05:38:19;;;;;;;;;;;-1.90;76.50;;;;;;5093509;28;19908;-34
2022/12/15 05:40:45;;;;;;;;;;;-1.90;76.50;;;;;;5093355;28;20445;-36
2022/12/15 05:43:10;;;;;;;;;;;-1.90;76.50;;;;;;5093331;28;19908;-34
2022/12/15 05:45:36;;;;;;;;;;;-1.90;76.50;;;;;;5093230;28;19912;-34
2022/12/15 05:48:01;;;;;;;;;;;-1.90;76.50;;;;;;5093283;28;19999;-36
2022/12/15 05:50:27;;;;;;;;;;;-1.90;76.50;;;;;;5092971;28;19915;-34
2022/12/15 05:52:53;;;;;;;;;;;-1.90;76.50;;;;;;5093006;28;19930;-34
2022/12/15 05:55:18;;;;;;;;;;;-1.90;76.50;;;;;;5093211;28;20406;-32
2022/12/15 05:57:49;;;;;;;;;;;-1.90;76.50;;;;;;5092742;28;20248;-35
2022/12/15 06:00:14;;;;;;;;;;;-1.90;76.50;;;;;;5092754;28;19988;-34
2022/12/15 06:02:40;;;;;;;;;;;-1.90;76.50;;;;;;5092640;28;20391;-37
2022/12/15 06:05:06;;;;;;;;;;;-1.90;76.50;;;;;;5092615;28;20011;-35
2022/12/15 06:07:32;;;;;;;;;;;-2.00;76.50;;;;;;5092553;28;19995;-33
2022/12/15 06:09:58;;;;;;;;;;;-2.00;76.60;;;;;;5092519;28;19915;-35
2022/12/15 06:12:23;;;;;;;;;;;-2.00;76.70;;;;;;5091451;28;19908;-34
2022/12/15 06:14:49;;;;;;;;;;;-2.00;76.70;;;;;;5092479;28;20383;-34
2022/12/15 06:17:14;;;;;;;;;;;-2.00;76.70;;;;;;5092396;28;19914;-34
2022/12/15 06:19:40;;;;;;;;;;;-2.00;76.70;;;;;;5092422;28;19912;-34
2022/12/15 06:22:05;;;;;;;;;;;-2.00;76.70;;;;;;5092171;28;20054;-35
2022/12/15 06:24:30;;;;;;;;;;;-2.10;76.60;;;;;;5092680;28;19908;-33
2022/12/15 06:26:56;;;;;;;;;;;-2.10;76.70;;;;;;5092340;28;20363;-34
2022/12/15 06:29:22;;;;;;;;;;;-2.10;76.70;;;;;;5092328;28;19908;-35
2022/12/15 06:31:47;;;;;;;;;;;-2.10;76.70;;;;;;5092398;28;19908;-34
2022/12/15 06:34:13;;;;;;;;;;;-2.10;76.70;;;;;;5092225;28;19960;-34
2022/12/15 06:36:39;;;;;;;;;;;-2.10;76.80;;;;;;5092357;28;20310;-36
2022/12/15 06:39:07;;;;;;;;;;;-2.10;76.90;;;;;;5092672;28;19912;-34
2022/12/15 06:41:32;;;;;;;;;;;-2.10;76.80;;;;;;5092480;28;20306;-36
2022/12/15 06:43:58;;;;;;;;;;;-2.10;76.80;;;;;;5092434;28;19947;-34
2022/12/15 06:46:24;;;;;;;;;;;-2.10;76.80;;;;;;5091914;28;20037;-35
2022/12/15 06:48:50;;;;;;;;;;;-2.10;76.90;;;;;;5092395;28;19950;-35
2022/12/15 06:51:16;;;;;;;;;;;-2.10;76.90;;;;;;5092313;28;19934;-35
2022/12/15 06:53:47;;;;;;;;;;;-2.10;76.90;;;;;;5092108;28;19958;-34
2022/12/15 06:56:19;;;;;;;;;;;-2.10;76.90;;;;;;5092164;28;19986;-33
2022/12/15 06:58:49;;;;;;;;;;;-2.10;76.90;;;;;;5091860;28;19959;-34
2022/12/15 07:01:15;;;;;;;;;;;-2.10;76.90;;;;;;5090474;28;20012;-33
2022/12/15 07:03:40;;;;;;;;;;;-2.10;76.90;;;;;;5092121;28;19958;-34
2022/12/15 07:06:07;;;;;;;;;;;-2.10;76.90;;;;;;5091384;28;19920;-34
2022/12/15 07:08:33;;;;;;;;;;;-2.10;76.90;;;;;;5091872;28;19976;-34
2022/12/15 07:10:58;;;;;;;;;;;-2.10;76.90;;;;;;5091706;28;19919;-34
2022/12/15 07:13:24;;;;;;;;;;;-2.10;76.90;;;;;;5091912;28;19916;-35
2022/12/15 07:15:50;;;;;;;;;;;-2.10;77.00;;;;;;5091941;28;20263;-33
2022/12/15 07:18:16;;;;;;;;;;;-2.10;77.00;;;;;;5091716;28;19912;-35
2022/12/15 07:20:42;;;;;;;;;;;-2.10;77.10;;;;;;5091958;28;19912;-34
2022/12/15 07:23:08;;;;;;;;;;;-2.10;77.10;;;;;;5091612;28;20252;-34
2022/12/15 07:25:37;;;;;;;;;;;-2.10;77.10;;;;;;5091428;28;19999;-33
2022/12/15 07:28:03;;;;;;;;;;;-2.10;77.10;;;;;;5090431;28;19912;-34
2022/12/15 07:30:28;;;;;;;;;;;-2.10;77.10;;;;;;5091961;28;20174;-36
2022/12/15 07:32:54;;;;;;;;;;;-2.10;77.10;;;;;;5091558;28;19960;-35
2022/12/15 07:35:19;;;;;;;;;;;-2.20;77.10;;;;;;5091675;28;20291;-34
2022/12/15 07:37:45;;;;;;;;;;;-2.20;77.10;;;;;;5091643;28;19946;-36
2022/12/15 07:40:10;;;;;;;;;;;-2.10;77.20;;;;;;5091460;28;20334;-34
2022/12/15 07:42:36;;;;;;;;;;;-2.20;77.20;;;;;;5091524;28;19957;-35
2022/12/15 07:45:02;;;;;;;;;;;-2.20;77.20;;;;;;5091601;28;20290;-35
2022/12/15 07:47:27;;;;;;;;;;;-2.20;77.20;;;;;;5091617;28;20014;-34
2022/12/15 07:49:56;;;;;;;;;;;-2.10;77.30;;;;;;5091291;28;19916;-34
2022/12/15 07:52:22;;;;;;;;;;;-2.10;77.30;;;;;;5091408;28;19915;-34
2022/12/15 07:54:47;;;;;;;;;;;-2.10;77.20;;;;;;5091489;28;20267;-35
2022/12/15 07:57:13;;;;;;;;;;;-2.10;77.20;;;;;;5091423;28;20012;-34
2022/12/15 07:59:38;;;;;;;;;;;-2.10;77.10;;;;;;5093683;28;19908;-34
2022/12/15 08:02:04;;;;;;;;;;;-2.10;77.10;;;;;;5095116;28;19916;-34
2022/12/15 08:04:30;;;;;;;;;;;-2.10;77.10;;;;;;5094811;28;19915;-35
2022/12/15 08:06:55;;;;;;;;;;;-2.10;77.20;;;;;;5094912;28;20443;-34
2022/12/15 08:09:21;;;;;;;;;;;-2.00;77.20;;;;;;5095149;28;20233;-34
2022/12/15 08:11:46;;;;;;;;;;;-2.00;77.20;;;;;;5094980;28;19915;-33
2022/12/15 08:14:12;;;;;;;;;;;-2.00;77.10;;;;;;5094982;28;19944;-35
2022/12/15 08:16:38;;;;;;;;;;;-2.00;77.10;;;;;;5095132;28;19953;-36
2022/12/15 08:19:04;;;;;;;;;;;-2.00;77.10;;;;;;5094672;28;19996;-33
2022/12/15 08:21:30;;;;;;;;;;;-1.90;77.10;;;;;;5094625;28;20442;-33
2022/12/15 08:23:56;;;;;;;;;;;-1.90;77.10;;;;;;5094617;28;19908;-36
2022/12/15 08:26:22;;;;;;;;;;;-1.90;77.10;;;;;;5094861;28;19957;-37
2022/12/15 08:28:47;;;;;;;;;;;-1.80;77.10;;;;;;5094808;28;19998;-34
2022/12/15 08:31:15;;;;;;;;;;;-1.70;77.10;;;;;;5094943;28;19908;-34
2022/12/15 08:33:41;;;;;;;;;;;-1.60;77.00;;;;;;5094818;28;20379;-34
2022/12/15 08:36:07;;;;;;;;;;;-1.50;76.80;;;;;;5094470;28;19915;-34
2022/12/15 08:38:33;;;;;;;;;;;-1.50;76.60;;;;;;5094387;28;19955;-34
2022/12/15 08:41:12;;;;;;;;;;;-1.50;76.50;;;;;;5092947;28;20008;-34
2022/12/15 08:43:38;;;;;;;;;;;-1.50;76.50;;;;;;5094173;28;19908;-34
2022/12/15 08:46:04;;;;;;;;;;;-1.50;76.60;;;;;;5093956;28;19912;-32
2022/12/15 08:48:30;;;;;;;;;;;-1.40;76.60;;;;;;5094212;28;19916;-35
2022/12/15 08:50:56;;;;;;;;;;;-1.40;76.60;;;;;;5094092;28;19926;-33
2022/12/15 08:53:21;;;;;;;;;;;-1.40;76.60;;;;;;5093954;28;19984;-34
2022/12/15 08:55:47;;;;;;;;;;;-1.40;76.60;;;;;;5093921;28;20371;-34
2022/12/15 08:58:12;;;;;;;;;;;-1.30;76.70;;;;;;5094200;28;19938;-33
2022/12/15 09:00:38;;;;;;;;;;;-1.30;76.70;;;;;;5093832;28;19908;-34
2022/12/15 09:03:03;;;;;;;;;;;-1.30;76.60;;;;;;5093785;28;19912;-32
2022/12/15 09:05:28;;;;;;;;;;;-1.30;76.60;;;;;;5093732;28;20011;-39
2022/12/15 09:07:55;;;;;;;;;;;-1.20;76.70;;;;;;5093755;28;19912;-33
2022/12/15 09:10:20;;;;;;;;;;;-1.20;76.60;;;;;;5093641;28;19909;-32
2022/12/15 09:12:46;;;;;;;;;;;-1.20;76.60;;;;;;5093512;28;19912;-34
2022/12/15 09:15:11;;;;;;;;;;;-1.10;76.50;;;;;;5093563;28;19992;-33
2022/12/15 09:17:37;;;;;;;;;;;-1.10;76.50;;;;;;5093634;28;19940;-39
2022/12/15 09:20:03;;;;;;;;;;;-1.10;76.50;;;;;;5093371;28;20415;-33
2022/12/15 09:22:29;;;;;;;;;;;-1.10;76.60;;;;;;5093578;28;19974;-33
2022/12/15 09:24:55;;;;;;;;;;;-1.10;76.50;;;;;;5093345;28;20293;-33
2022/12/15 09:27:20;;;;;;;;;;;-1.00;76.60;;;;;;5093575;28;19908;-33
2022/12/15 09:29:46;;;;;;;;;;;-1.00;76.50;;;;;;5093375;28;20363;-34
2022/12/15 09:32:12;;;;;;;;;;;-0.90;76.40;;;;;;5093302;28;19954;-33
2022/12/15 09:34:38;;;;;;;;;;;-0.90;76.40;;;;;;5093468;28;19908;-34
2022/12/15 09:37:04;;;;;;;;;;;-0.90;76.40;;;;;;5093104;28;19918;-33
2022/12/15 09:39:31;;;;;;;;;;;-0.90;76.40;;;;;;5093030;28;19908;-34
2022/12/15 09:41:59;;;;;;;;;;;-0.80;76.40;;;;;;5093420;28;19908;-34
2022/12/15 09:44:26;;;;;;;;;;;-0.80;76.30;;;;;;5093151;28;19919;-33
2022/12/15 09:47:10;;;;;;;;;;;-0.80;76.30;;;;;;5093296;28;19919;-34
2022/12/15 09:49:42;;;;;;;;;;;-0.70;76.30;;;;;;5093371;28;20003;-34
2022/12/15 09:52:18;;;;;;;;;;;-0.70;76.20;;;;;;5092846;28;19908;-34
2022/12/15 09:54:45;;;;;;;;;;;-0.70;76.20;;;;;;5093077;28;20007;-33
2022/12/15 09:57:22;;;;;;;;;;;-0.60;76.20;;;;;;5092936;28;19919;-34
2022/12/15 09:59:48;;;;;;;;;;;-0.60;76.20;;;;;;5092756;28;19919;-35
2022/12/15 10:02:19;;;;;;;;;;;-0.60;76.00;;;;;;5093018;28;20363;-34
2022/12/15 10:04:57;;;;;;;;;;;-0.60;76.10;;;;;;5092858;28;20355;-33
2022/12/15 10:07:28;;;;;;;;;;;-0.50;76.20;;;;;;5092497;28;20344;-34
2022/12/15 10:09:55;;;;;;;;;;;-0.40;76.10;;;;;;5092480;28;20384;-35
2022/12/15 10:12:24;;;;;;;;;;;-0.40;76.10;;;;;;5092722;28;20376;-34
2022/12/15 10:14:55;;;;;;;;;;;-0.40;76.10;;;;;;5092812;28;20260;-36
2022/12/15 10:17:47;;;;;;;;;;;-0.30;76.10;;;;;;5092607;28;20003;-35
2022/12/15 10:20:17;;;;;;;;;;;-0.30;76.00;;;;;;5090307;28;19930;-34
2022/12/15 10:22:43;;;;;;;;;;;-0.20;76.10;;;;;;5092055;28;20338;-34
2022/12/15 10:25:19;;;;;;;;;;;-0.20;76.00;;;;;;5092465;28;19995;-34
2022/12/15 10:27:57;;;;;;;;;;;-0.10;76.00;;;;;;5091012;28;19912;-35
2022/12/15 10:30:23;;;;;;;;;;;-0.10;76.00;;;;;;5092225;28;19912;-35
2022/12/15 10:33:00;;;;;;;;;;;0.00;75.90;;;;;;5092257;28;19915;-44
2022/12/15 10:35:33;;;;;;;;;;;0.00;75.90;;;;;;5092244;28;19908;-34
2022/12/15 10:38:05;;;;;;;;;;;0.10;76.00;;;;;;5092525;28;19908;-34
2022/12/15 10:40:43;;;;;;;;;;;0.10;75.90;;;;;;5092465;28;19912;-33
2022/12/15 10:43:27;;;;;;;;;;;0.20;75.90;;;;;;5092252;28;19931;-35
2022/12/15 10:46:03;;;;;;;;;;;0.20;75.90;;;;;;5092288;28;19943;-34
2022/12/15 10:48:29;;;;;;;;;;;0.30;75.90;;;;;;5092137;28;19915;-35
2022/12/15 10:51:12;;;;;;;;;;;0.30;75.80;;;;;;5092194;28;19912;-34
2022/12/15 10:53:40;;;;;;;;;;;0.40;75.90;;;;;;5092114;28;19946;-34
2022/12/15 10:56:07;;;;;;;;;;;0.40;75.90;;;;;;5091998;28;19912;-34
2022/12/15 10:58:43;;;;;;;;;;;0.50;75.90;;;;;;5092322;28;19994;-33
2022/12/15 11:01:15;;;;;;;;;;;0.60;75.90;;;;;;5091760;28;20022;-34
2022/12/15 11:03:40;;;;;;;;;;;0.60;75.80;;;;;;5092346;28;20294;-34
2022/12/15 11:06:25;;;;;;;;;;;0.70;75.80;;;;;;5091468;28;19950;-33
2022/12/15 11:08:52;;;;;;;;;;;0.70;75.80;;;;;;5092099;28;20020;-34
2022/12/15 11:14:18;;;;;;;;;;;0.80;75.70;;;;;;5092265;28;19916;-33
2022/12/15 11:16:46;;;;;;;;;;;0.90;75.80;;;;;;5091937;28;19915;-34
2022/12/15 11:19:35;;;;;;;;;;;0.90;75.70;;;;;;5091888;28;19915;-33
2022/12/15 11:22:08;;;;;;;;;;;1.00;75.70;;;;;;5086215;28;19915;-34
2022/12/15 11:24:39;;;;;;;;;;;1.10;75.70;;;;;;5091904;28;20367;-33
2022/12/15 11:27:10;;;;;;;;;;;1.10;75.70;;;;;;5092055;28;19916;-32
2022/12/15 11:29:55;;;;;;;;;;;1.20;75.70;;;;;;5092054;28;20377;-33
2022/12/15 11:32:24;;;;;;;;;;;1.30;75.70;;;;;;5091977;28;20396;-34
2022/12/15 11:34:50;;;;;;;;;;;1.30;75.60;;;;;;5094816;28;19955;-34
2022/12/15 11:37:19;;;;;;;;;;;1.40;75.60;;;;;;5095713;28;19908;-34
2022/12/15 11:40:20;;;;;;;;;;;1.40;75.60;;;;;;5095989;28;20274;-35
2022/12/15 11:42:51;;;;;;;;;;;1.50;75.60;;;;;;5052871;28;19997;-34
2022/12/15 11:45:23;;;;;;;;;;;1.50;75.50;;;;;;5088404;28;19957;-34
2022/12/15 11:48:00;;;;;;;;;;;1.60;75.60;;;;;;5095476;28;19959;-35
2022/12/15 11:50:40;;;;;;;;;;;1.60;75.60;;;;;;5095339;28;20019;-35
2022/12/15 11:53:16;;;;;;;;;;;1.70;75.60;;;;;;5095220;28;19958;-33
2022/12/15 11:55:54;;;;;;;;;;;1.80;75.60;;;;;;5095453;28;20325;-36
2022/12/15 11:58:44;;;;;;;;;;;1.80;75.50;;;;;;5095595;28;19916;-34
2022/12/15 12:01:15;;;;;;;;;;;1.90;75.50;;;;;;5095273;28;19908;-34
2022/12/15 12:04:00;;;;;;;;;;;2.00;75.50;;;;;;5095318;28;20290;-34
2022/12/15 12:06:44;;;;;;;;;;;2.00;75.50;;;;;;5094766;28;20017;-34
2022/12/15 12:09:28;;;;;;;;;;;2.10;75.40;;;;;;5095215;28;20001;-34
2022/12/15 12:11:59;;;;;;;;;;;2.10;75.40;;;;;;5095041;28;19908;-33
2022/12/15 12:14:35;;;;;;;;;;;2.10;75.50;;;;;;5094903;28;20387;-34
2022/12/15 12:17:03;;;;;;;;;;;2.20;75.40;;;;;;5094986;28;20006;-37
2022/12/15 12:19:32;;;;;;;;;;;2.20;75.40;;;;;;5095018;28;19908;-34
2022/12/15 12:22:01;;;;;;;;;;;2.20;75.40;;;;;;5094789;28;19950;-33
2022/12/15 12:24:35;;;;;;;;;;;2.20;75.40;;;;;;5094871;28;19934;-33
2022/12/15 12:27:03;;;;;;;;;;;2.20;75.40;;;;;;5094702;28;20382;-34
2022/12/15 12:29:28;;;;;;;;;;;2.10;75.50;;;;;;5094922;28;19908;-34
2022/12/15 12:31:57;;;;;;;;;;;2.10;75.70;;;;;;5093346;28;19912;-36
2022/12/15 12:34:31;;;;;;;;;;;2.10;75.70;;;;;;5094673;28;19908;-34
2022/12/15 12:37:03;;;;;;;;;;;2.10;75.80;;;;;;5094486;28;19915;-34
2022/12/15 12:39:29;;;;;;;;;;;2.10;75.90;;;;;;5094515;28;19908;-34
2022/12/15 12:42:05;;;;;;;;;;;2.20;75.90;;;;;;5093159;28;19973;-34
2022/12/15 12:44:37;;;;;;;;;;;2.20;75.90;;;;;;5094017;28;19954;-34
2022/12/15 12:47:10;;;;;;;;;;;2.40;75.90;;;;;;5094213;28;19978;-34
2022/12/15 12:49:39;;;;;;;;;;;2.40;75.70;;;;;;5092970;28;19909;-34
2022/12/15 12:52:05;;;;;;;;;;;2.40;75.50;;;;;;5094202;28;19969;-34
2022/12/15 12:54:34;;;;;;;;;;;2.40;76.10;;;;;;5094377;28;20368;-34
2022/12/15 12:57:19;;;;;;;;;;;2.40;75.70;;;;;;5094422;28;19912;-34
2022/12/15 12:59:56;;;;;;;;;;;2.40;75.70;;;;;;5093759;28;20011;-34
2022/12/15 13:02:23;;;;;;;;;;;2.50;75.80;;;;;;5094115;28;19908;-36
2022/12/15 13:04:50;;;;;;;;;;;2.60;75.80;;;;;;5093940;28;19947;-34
2022/12/15 13:07:35;;;;;;;;;;;2.70;75.70;;;;;;5093825;28;19917;-34
2022/12/15 13:10:06;;;;;;;;;;;2.80;75.50;;;;;;5093081;28;19954;-34
2022/12/15 13:12:43;;;;;;;;;;;2.90;75.30;;;;;;5094183;28;19908;-36
2022/12/15 13:15:11;;;;;;;;;;;3.00;75.20;;;;;;5093819;28;19908;-35
2022/12/15 13:17:39;;;;;;;;;;;2.90;75.10;;;;;;5094046;28;20359;-34
2022/12/15 13:20:16;;;;;;;;;;;2.90;75.10;;;;;;5093803;28;19983;-34
2022/12/15 13:22:42;;;;;;;;;;;2.90;75.20;;;;;;5093586;28;20332;-38
2022/12/15 13:25:23;;;;;;;;;;;2.90;75.20;;;;;;5093599;28;19908;-39
2022/12/15 13:27:52;;;;;;;;;;;2.90;75.20;;;;;;5093799;28;19915;-34
2022/12/15 13:30:17;;;;;;;;;;;2.90;75.30;;;;;;5093492;28;19908;-36
2022/12/15 13:32:44;;;;;;;;;;;2.80;75.30;;;;;;5093501;28;20440;-34
2022/12/15 13:35:12;;;;;;;;;;;2.80;75.40;;;;;;5093761;28;19908;-37
2022/12/15 13:37:52;;;;;;;;;;;2.80;75.60;;;;;;5092079;28;19915;-34
2022/12/15 13:40:31;;;;;;;;;;;2.80;75.60;;;;;;5093661;28;19908;-34
2022/12/15 13:42:58;;;;;;;;;;;2.80;75.50;;;;;;5093630;28;20009;-33
2022/12/15 13:45:36;;;;;;;;;;;2.80;75.40;;;;;;5093223;28;19912;-33
2022/12/15 13:48:12;;;;;;;;;;;2.80;75.40;;;;;;5092065;28;19916;-34
2022/12/15 13:50:42;;;;;;;;;;;2.70;75.50;;;;;;5093433;28;19915;-35
2022/12/15 13:53:12;;;;;;;;;;;2.70;75.70;;;;;;5093073;28;20375;-33
2022/12/15 13:55:38;;;;;;;;;;;2.60;75.70;;;;;;5092865;28;19908;-39
2022/12/15 13:58:11;;;;;;;;;;;2.60;75.80;;;;;;5092750;28;20298;-33
2022/12/15 14:00:37;;;;;;;;;;;2.70;75.80;;;;;;5092930;28;19908;-34
2022/12/15 14:03:06;;;;;;;;;;;2.70;75.80;;;;;;5093028;28;20364;-36
2022/12/15 14:05:32;;;;;;;;;;;2.70;75.70;;;;;;5092658;28;19920;-35
2022/12/15 14:07:59;;;;;;;;;;;2.80;75.80;;;;;;5093023;28;19931;-34
2022/12/15 14:10:41;;;;;;;;;;;2.80;75.80;;;;;;5092880;28;19913;-34
2022/12/15 14:13:11;;;;;;;;;;;2.80;75.60;;;;;;5093051;28;19915;-34
2022/12/15 14:15:39;;;;;;;;;;;2.80;75.60;;;;;;5093069;28;19935;-35
2022/12/15 14:18:05;;;;;;;;;;;2.80;75.70;;;;;;5092811;28;19912;-34
2022/12/15 14:20:37;;;;;;;;;;;2.80;75.70;;;;;;5092613;28;20283;-35
2022/12/15 14:23:16;;;;;;;;;;;2.80;75.80;;;;;;5092931;28;19915;-35
2022/12/15 14:25:50;;;;;;;;;;;2.80;75.80;;;;;;5092503;28;19912;-37
2022/12/15 14:28:23;;;;;;;;;;;2.80;75.80;;;;;;5092558;28;20011;-35
2022/12/15 14:30:49;;;;;;;;;;;2.70;75.80;;;;;;5092414;28;19908;-35
2022/12/15 14:33:16;;;;;;;;;;;2.70;75.90;;;;;;5092481;28;19916;-35
2022/12/15 14:35:43;;;;;;;;;;;2.60;75.90;;;;;;5092421;28;19908;-35
2022/12/15 14:38:14;;;;;;;;;;;2.60;76.00;;;;;;5092412;28;20332;-34
2022/12/15 14:40:40;;;;;;;;;;;2.60;76.70;;;;;;5092707;28;20371;-35
2022/12/15 14:43:10;;;;;;;;;;;2.60;76.20;;;;;;5092586;28;19908;-35
2022/12/15 14:45:36;;;;;;;;;;;2.60;76.20;;;;;;5092583;28;19918;-35
2022/12/15 14:48:05;;;;;;;;;;;2.60;76.20;;;;;;5090911;28;19954;-35
2022/12/15 14:50:31;;;;;;;;;;;2.60;76.10;;;;;;5092314;28;19908;-36
2022/12/15 14:53:17;;;;;;;;;;;2.70;76.10;;;;;;5090816;28;19952;-35
2022/12/15 14:55:42;;;;;;;;;;;2.70;76.00;;;;;;5092233;28;20045;-37
2022/12/15 14:58:23;;;;;;;;;;;2.70;76.10;;;;;;5092235;28;20372;-44
2022/12/15 15:00:50;;;;;;;;;;;2.60;76.10;;;;;;5092438;28;19908;-35
2022/12/15 15:03:17;;;;;;;;;;;2.60;76.20;;;;;;5092094;28;20431;-43
2022/12/15 15:05:48;;;;;;;;;;;2.50;76.30;;;;;;5090442;28;19920;-47
2022/12/15 15:08:27;;;;;;;;;;;2.40;76.40;;;;;;5094982;28;19909;-35
2022/12/15 15:10:55;;;;;;;;;;;2.30;76.50;;;;;;5098935;28;19948;-37
2022/12/15 15:13:23;;;;;;;;;;;2.20;76.60;;;;;;5098637;28;19940;-41
2022/12/15 15:15:56;;;;;;;;;;;2.20;76.80;;;;;;5098722;28;19909;-35
2022/12/15 15:18:24;;;;;;;;;;;2.20;76.90;;;;;;5098927;28;19915;-37
2022/12/15 15:20:54;;;;;;;;;;;2.10;77.00;;;;;;5098926;28;20360;-42
2022/12/15 15:23:20;;;;;;;;;;;2.10;77.10;;;;;;5098628;28;19916;-42
2022/12/15 15:25:53;;;;;;;;;;;2.00;77.10;;;;;;5098484;28;19912;-39
2022/12/15 15:28:18;;;;;;;;;;;2.00;77.10;;;;;;5098418;28;19909;-37
2022/12/15 15:30:45;;;;;;;;;;;1.90;77.20;;;;;;5098544;28;19912;-35
2022/12/15 15:33:12;;;;;;;;;;;1.90;77.30;;;;;;5098392;28;20279;-35
2022/12/15 15:35:38;;;;;;;;;;;1.90;77.40;;;;;;5098795;28;19931;-35
2022/12/15 15:38:10;;;;;;;;;;;1.80;77.40;;;;;;5098558;28;19912;-35
2022/12/15 15:40:35;;;;;;;;;;;1.80;77.50;;;;;;5098407;28;19912;-35
2022/12/15 15:43:01;;;;;;;;;;;1.80;77.50;;;;;;5098834;28;19998;-38
2022/12/15 15:45:26;;;;;;;;;;;1.80;77.60;;;;;;5098378;28;19908;-37
2022/12/15 15:47:52;;;;;;;;;;;1.70;77.60;;;;;;5098376;28;19934;-35
2022/12/15 15:50:20;;;;;;;;;;;1.70;77.60;;;;;;5098358;28;20351;-37
2022/12/15 15:52:45;;;;;;;;;;;1.70;77.60;;;;;;5098201;28;19908;-35
2022/12/15 15:55:12;;;;;;;;;;;1.70;77.70;;;;;;5097166;28;19981;-35
2022/12/15 15:57:38;;;;;;;;;;;1.70;77.80;;;;;;5098311;28;20430;-36
2022/12/15 16:00:14;;;;;;;;;;;1.70;77.80;;;;;;5098449;28;19958;-35
2022/12/15 16:02:40;;;;;;;;;;;1.60;77.80;;;;;;5098304;28;20415;-35
2022/12/15 16:05:05;;;;;;;;;;;1.60;77.80;;;;;;5098175;28;19970;-34
2022/12/15 16:07:31;;;;;;;;;;;1.60;78.00;;;;;;5098027;28;19923;-35
2022/12/15 16:09:57;;;;;;;;;;;1.60;78.00;;;;;;5098326;28;20364;-36
2022/12/15 16:12:27;;;;;;;;;;;1.50;78.00;;;;;;5098112;28;19908;-36
2022/12/15 16:14:53;;;;;;;;;;;1.50;78.00;;;;;;5098227;28;19915;-37
2022/12/15 16:17:19;;;;;;;;;;;1.50;78.10;;;;;;5097098;28;19912;-35
2022/12/15 16:19:45;;;;;;;;;;;1.50;78.10;;;;;;5096281;28;19977;-35
2022/12/15 16:22:20;;;;;;;;;;;1.50;78.10;;;;;;5095020;28;19965;-35
2022/12/15 16:24:46;;;;;;;;;;;1.40;78.20;;;;;;5094910;28;19916;-35
2022/12/15 16:27:12;;;;;;;;;;;1.40;78.20;;;;;;5094983;28;19916;-35
2022/12/15 16:29:38;;;;;;;;;;;1.40;78.20;;;;;;5094957;28;19914;-37
2022/12/15 16:32:04;;;;;;;;;;;1.40;78.20;;;;;;5094569;28;19908;-35
2022/12/15 16:34:29;;;;;;;;;;;1.40;78.30;;;;;;5094413;28;19958;-34
2022/12/15 16:36:55;;;;;;;;;;;1.40;78.30;;;;;;5094478;28;19908;-37
2022/12/15 16:39:27;;;;;;;;;;;1.40;78.40;;;;;;5094554;28;19964;-34
2022/12/15 16:41:54;;;;;;;;;;;1.40;78.40;;;;;;5094436;28;19908;-35
2022/12/15 16:44:20;;;;;;;;;;;1.30;78.40;;;;;;5094229;28;20019;-35
2022/12/15 16:46:45;;;;;;;;;;;1.30;78.40;;;;;;5092952;28;20124;-35
2022/12/15 16:49:11;;;;;;;;;;;1.30;78.50;;;;;;5094277;28;19908;-35
2022/12/15 16:51:47;;;;;;;;;;;1.20;78.50;;;;;;5094343;28;20372;-33
2022/12/15 16:54:17;;;;;;;;;;;1.20;78.50;;;;;;5094571;28;19995;-36
2022/12/15 16:56:42;;;;;;;;;;;1.20;78.60;;;;;;5094541;28;19915;-34
2022/12/15 16:59:15;;;;;;;;;;;1.10;78.60;;;;;;5094271;28;19908;-34